Time;durP1;ratioP1;P1;durP2;ratioP2;P2;SDS_P1;SDS_P2;PMS_P1;PMS_P2;Temp;Humidity;BMP_temperature;BMP_pressure;BME280_temperature;BME280_humidity;BME280_pressure;Samples;Min_cycle;Max_cycle;Signal;HPM_P1;HPM_P2
2021/01/23 00:00:31;;;;;;;59.55;23.23;;;0.40;95.20;;;;;;5020098;28;20114;-66
2021/01/23 00:02:56;;;;;;;52.38;24.20;;;0.50;95.50;;;;;;5021951;28;20017;-68
2021/01/23 00:05:22;;;;;;;49.40;24.13;;;0.40;95.40;;;;;;5004246;28;20029;-67
2021/01/23 00:07:48;;;;;;;57.65;24.40;;;0.30;95.40;;;;;;5023375;28;20455;-68
2021/01/23 00:10:13;;;;;;;61.63;25.52;;;0.20;95.60;;;;;;5023055;28;20037;-68
2021/01/23 00:12:39;;;;;;;71.35;25.88;;;0.20;95.80;;;;;;5020745;28;20146;-67
2021/01/23 00:15:05;;;;;;;80.03;27.67;;;0.10;95.80;;;;;;5018982;28;20048;-67
2021/01/23 00:17:31;;;;;;;74.47;26.92;;;0.20;96.00;;;;;;5020065;28;20025;-67
2021/01/23 00:19:57;;;;;;;82.65;28.55;;;0.20;96.10;;;;;;5020071;28;20396;-67
2021/01/23 00:22:22;;;;;;;85.18;30.05;;;0.20;96.20;;;;;;5002777;28;20097;-67
2021/01/23 00:24:48;;;;;;;93.90;29.98;;;0.20;96.20;;;;;;5018901;28;20140;-67
2021/01/23 00:27:14;;;;;;;84.75;28.67;;;0.10;96.20;;;;;;5019053;28;20136;-66
2021/01/23 00:29:39;;;;;;;91.03;29.92;;;0.10;96.30;;;;;;5019281;28;20474;-67
2021/01/23 00:32:05;;;;;;;94.95;28.88;;;0.10;96.30;;;;;;5020677;28;20542;-65
2021/01/23 00:34:31;;;;;;;101.97;29.85;;;0.10;96.30;;;;;;5021073;28;20643;-68
2021/01/23 00:36:56;;;;;;;102.53;30.65;;;0.10;96.30;;;;;;5019087;28;20039;-67
2021/01/23 00:39:22;;;;;;;102.72;31.73;;;0.10;96.40;;;;;;5018960;28;20024;-67
2021/01/23 00:41:48;;;;;;;93.88;31.35;;;0.20;96.40;;;;;;5018940;28;20037;-68
2021/01/23 00:44:13;;;;;;;98.07;31.95;;;0.10;96.40;;;;;;5003863;28;20425;-68
2021/01/23 00:46:39;;;;;;;114.35;31.77;;;0.10;96.40;;;;;;5018909;28;20085;-67
2021/01/23 00:49:04;;;;;;;108.30;32.85;;;0.10;96.40;;;;;;5008883;28;20113;-68
2021/01/23 00:51:30;;;;;;;116.72;33.67;;;0.10;96.50;;;;;;5017955;28;20481;-68
2021/01/23 00:56:42;;;;;;;116.63;33.03;;;0.10;96.50;;;;;;5026296;28;20049;-67
2021/01/23 00:59:07;;;;;;;133.40;35.05;;;0.10;96.60;;;;;;5022971;28;20028;-66
2021/01/23 01:01:33;;;;;;;126.18;34.70;;;0.10;96.70;;;;;;5026287;28;20320;-67
2021/01/23 01:03:59;;;;;;;126.57;36.80;;;0.10;96.60;;;;;;5026853;28;20029;-66
2021/01/23 01:06:24;;;;;;;130.18;35.47;;;0.10;96.60;;;;;;5023602;28;20041;-67
2021/01/23 01:08:50;;;;;;;127.10;35.95;;;0.10;96.60;;;;;;5027082;28;20029;-67
2021/01/23 01:11:15;;;;;;;135.65;33.63;;;0.00;96.60;;;;;;5023235;28;20095;-67
2021/01/23 01:13:41;;;;;;;130.38;34.95;;;0.00;96.60;;;;;;5022767;28;20326;-67
2021/01/23 01:16:06;;;;;;;131.57;36.15;;;0.00;96.70;;;;;;5020747;28;20521;-67
2021/01/23 01:18:32;;;;;;;150.55;37.55;;;0.10;96.70;;;;;;5024192;28;20452;-67
2021/01/23 01:20:57;;;;;;;138.70;35.55;;;0.10;96.80;;;;;;5023569;28;20025;-66
2021/01/23 01:23:23;;;;;;;135.13;35.33;;;0.10;96.70;;;;;;5033371;28;20028;-67
2021/01/23 01:25:48;;;;;;;150.52;37.45;;;0.10;96.70;;;;;;5036852;28;20094;-67
2021/01/23 01:28:14;;;;;;;152.43;37.38;;;0.10;96.70;;;;;;5032533;28;20022;-67
2021/01/23 01:30:40;;;;;;;160.63;36.38;;;0.00;96.80;;;;;;5034309;28;20437;-67
2021/01/23 01:33:05;;;;;;;153.35;38.22;;;0.00;96.80;;;;;;5031046;28;20061;-68
2021/01/23 01:35:31;;;;;;;155.18;39.42;;;0.10;96.80;;;;;;5033065;28;20381;-67
2021/01/23 01:37:57;;;;;;;154.25;39.38;;;0.10;96.90;;;;;;5041459;28;20033;-67
2021/01/23 01:40:23;;;;;;;161.77;39.45;;;0.20;96.90;;;;;;5033945;28;20091;-67
2021/01/23 01:42:48;;;;;;;176.25;39.92;;;0.20;96.90;;;;;;5030499;28;20556;-67
2021/01/23 01:45:15;;;;;;;153.60;39.47;;;0.30;97.00;;;;;;5035981;28;20033;-67
2021/01/23 01:47:41;;;;;;;156.05;40.75;;;0.20;96.90;;;;;;5028962;28;20164;-67
2021/01/23 01:50:08;;;;;;;155.38;39.03;;;0.20;96.80;;;;;;5037627;28;20246;-67
2021/01/23 01:52:33;;;;;;;170.23;41.67;;;0.20;96.80;;;;;;5031700;28;20048;-67
2021/01/23 01:55:00;;;;;;;170.00;40.70;;;0.30;96.80;;;;;;5028898;28;20037;-67
2021/01/23 01:57:25;;;;;;;165.13;40.13;;;0.40;96.90;;;;;;5028733;28;20074;-67
2021/01/23 01:59:51;;;;;;;173.15;39.80;;;0.30;96.80;;;;;;5037007;28;20025;-67
2021/01/23 02:02:41;;;;;;;151.40;39.22;;;0.30;96.70;;;;;;5036949;28;20470;-67
2021/01/23 02:05:25;;;;;;;169.45;41.38;;;0.30;96.70;;;;;;5039259;28;20068;-66
2021/01/23 02:08:06;;;;;;;158.75;37.80;;;0.30;96.70;;;;;;5037332;28;20037;-67
2021/01/23 02:11:01;;;;;;;172.90;42.13;;;0.40;96.80;;;;;;5037253;28;20029;-66
2021/01/23 02:13:28;;;;;;;157.60;38.47;;;0.40;96.80;;;;;;5024247;28;20048;-67
2021/01/23 02:16:11;;;;;;;176.57;39.95;;;0.40;96.70;;;;;;5050116;28;20029;-67
2021/01/23 02:18:41;;;;;;;165.57;39.25;;;0.40;96.70;;;;;;5048716;28;20029;-67
2021/01/23 02:21:45;;;;;;;173.10;40.80;;;0.40;96.60;;;;;;5047653;28;20110;-67
2021/01/23 02:24:13;;;;;;;166.23;39.88;;;0.30;96.60;;;;;;5031951;28;20088;-66
2021/01/23 02:26:57;;;;;;;169.88;39.75;;;0.30;96.60;;;;;;5034317;28;20029;-67
2021/01/23 02:29:33;;;;;;;165.82;38.65;;;0.30;96.60;;;;;;5032185;28;20029;-67
2021/01/23 02:32:01;;;;;;;163.23;39.95;;;0.30;96.70;;;;;;5040123;28;20021;-66
2021/01/23 02:34:28;;;;;;;174.00;39.75;;;0.30;96.70;;;;;;5031954;28;20678;-67
2021/01/23 02:36:56;;;;;;;156.55;39.95;;;0.20;96.70;;;;;;5039531;28;20026;-66
2021/01/23 02:39:23;;;;;;;181.32;42.83;;;0.20;96.70;;;;;;5039174;28;20124;-67
2021/01/23 02:41:51;;;;;;;177.45;40.40;;;0.30;96.70;;;;;;5036186;28;20437;-67
2021/01/23 02:44:17;;;;;;;172.63;40.00;;;0.20;96.70;;;;;;5043710;28;20092;-67
2021/01/23 02:46:43;;;;;;;160.85;38.75;;;0.40;96.80;;;;;;5030382;28;20489;-67
2021/01/23 02:49:08;;;;;;;165.93;42.00;;;0.30;96.80;;;;;;5043454;28;20084;-67
2021/01/23 02:52:01;;;;;;;190.68;43.75;;;0.40;96.80;;;;;;5049007;28;20090;-67
2021/01/23 02:54:43;;;;;;;173.88;41.45;;;0.40;96.80;;;;;;5030277;28;20028;-67
2021/01/23 02:57:11;;;;;;;176.20;41.72;;;0.40;96.80;;;;;;5034390;28;20025;-67
2021/01/23 02:59:40;;;;;;;183.25;43.17;;;0.40;96.80;;;;;;5034252;28;20025;-67
2021/01/23 03:02:09;;;;;;;169.82;42.10;;;0.40;96.80;;;;;;5038258;28;20036;-67
2021/01/23 03:04:37;;;;;;;161.48;40.67;;;0.40;96.80;;;;;;5045668;28;20144;-67
2021/01/23 03:07:03;;;;;;;189.13;44.17;;;0.40;96.70;;;;;;5049118;28;20044;-66
2021/01/23 03:09:28;;;;;;;176.95;42.72;;;0.40;96.70;;;;;;5032644;28;20490;-66
2021/01/23 03:11:54;;;;;;;171.82;42.63;;;0.40;96.80;;;;;;5033918;28;20026;-67
2021/01/23 03:14:20;;;;;;;171.43;42.60;;;0.40;96.70;;;;;;5034387;28;20556;-67
2021/01/23 03:16:50;;;;;;;176.93;41.70;;;0.30;96.70;;;;;;5031372;28;20068;-67
2021/01/23 03:19:16;;;;;;;210.80;45.05;;;0.40;96.80;;;;;;5035322;28;20116;-67
2021/01/23 03:21:42;;;;;;;184.05;42.67;;;0.40;96.80;;;;;;5035005;28;20342;-68
2021/01/23 03:24:08;;;;;;;190.30;42.80;;;0.40;96.80;;;;;;5031345;28;20049;-66
2021/01/23 03:26:34;;;;;;;194.98;44.85;;;0.50;96.80;;;;;;5030626;28;20030;-67
2021/01/23 03:29:00;;;;;;;178.60;42.83;;;0.50;96.80;;;;;;5029859;28;20033;-66
2021/01/23 03:31:26;;;;;;;188.48;43.97;;;0.50;96.80;;;;;;5036808;28;20287;-67
2021/01/23 03:33:51;;;;;;;178.00;41.17;;;0.40;96.70;;;;;;5034281;28;20049;-67
2021/01/23 03:36:17;;;;;;;188.48;44.55;;;0.40;96.70;;;;;;5034479;28;20024;-66
2021/01/23 03:38:43;;;;;;;170.48;42.97;;;0.40;96.80;;;;;;5036877;28;20407;-67
2021/01/23 03:41:08;;;;;;;165.10;41.75;;;0.40;96.80;;;;;;5035628;28;20021;-67
2021/01/23 03:43:34;;;;;;;164.75;41.08;;;0.40;96.70;;;;;;5042654;28;20056;-67
2021/01/23 03:45:59;;;;;;;166.63;41.72;;;0.30;96.70;;;;;;5032896;28;20036;-66
2021/01/23 03:48:25;;;;;;;168.05;42.55;;;0.40;96.70;;;;;;5037250;28;20109;-67
2021/01/23 03:50:50;;;;;;;187.95;41.58;;;0.30;96.70;;;;;;5045702;28;20033;-67
2021/01/23 03:53:16;;;;;;;183.05;41.10;;;0.40;96.80;;;;;;5038436;28;20063;-67
2021/01/23 03:55:42;;;;;;;185.32;44.67;;;0.40;96.80;;;;;;5050009;28;20441;-66
2021/01/23 03:58:07;;;;;;;177.52;43.45;;;0.40;96.80;;;;;;5049060;28;20405;-67
2021/01/23 04:00:33;;;;;;;193.50;43.58;;;0.50;96.90;;;;;;5039903;28;20108;-67
2021/01/23 04:02:58;;;;;;;182.98;42.58;;;0.50;96.80;;;;;;5042996;28;20025;-67
2021/01/23 04:05:24;;;;;;;177.77;43.13;;;0.40;96.80;;;;;;5045811;28;20049;-66
2021/01/23 04:07:50;;;;;;;166.63;41.67;;;0.50;96.80;;;;;;5031221;28;20033;-67
2021/01/23 04:10:15;;;;;;;175.07;41.08;;;0.50;96.80;;;;;;5036214;28;20031;-67
2021/01/23 04:12:41;;;;;;;184.85;43.50;;;0.50;96.80;;;;;;5030297;28;20030;-67
2021/01/23 04:15:07;;;;;;;173.77;40.63;;;0.50;96.80;;;;;;5040907;28;20040;-67
2021/01/23 04:17:33;;;;;;;189.32;43.80;;;0.50;96.80;;;;;;5045208;28;20067;-67
2021/01/23 04:19:58;;;;;;;167.65;40.53;;;0.50;96.70;;;;;;5044729;28;20037;-67
2021/01/23 04:22:24;;;;;;;167.00;40.45;;;0.50;96.70;;;;;;5028811;28;20030;-67
2021/01/23 04:24:49;;;;;;;167.18;41.22;;;0.40;96.70;;;;;;5038605;28;20405;-67
2021/01/23 04:27:15;;;;;;;176.13;40.97;;;0.50;96.70;;;;;;5033430;28;20024;-67
2021/01/23 04:29:41;;;;;;;147.38;39.38;;;0.40;96.70;;;;;;5029717;28;20025;-66
2021/01/23 04:32:06;;;;;;;162.80;40.13;;;0.40;96.70;;;;;;5042966;28;20037;-67
2021/01/23 04:34:32;;;;;;;181.18;41.05;;;0.40;96.70;;;;;;5038491;28;20554;-67
2021/01/23 04:36:57;;;;;;;155.85;39.50;;;0.40;96.80;;;;;;5044420;28;20025;-67
2021/01/23 04:39:23;;;;;;;152.45;38.88;;;0.40;96.80;;;;;;5045157;28;20092;-67
2021/01/23 04:41:48;;;;;;;137.63;39.70;;;0.40;96.70;;;;;;5034972;28;20035;-67
2021/01/23 04:44:14;;;;;;;171.73;39.75;;;0.40;96.70;;;;;;5027393;28;20049;-67
2021/01/23 04:46:40;;;;;;;156.77;41.15;;;0.40;96.70;;;;;;5029813;28;20025;-68
2021/01/23 04:49:05;;;;;;;162.82;41.58;;;0.40;96.80;;;;;;5033849;28;20116;-67
2021/01/23 04:51:31;;;;;;;166.40;41.67;;;0.40;96.80;;;;;;5046117;28;20079;-67
2021/01/23 04:53:57;;;;;;;156.30;40.33;;;0.50;96.80;;;;;;5034635;28;20410;-67
2021/01/23 04:56:26;;;;;;;161.20;40.35;;;0.50;96.80;;;;;;5029623;28;20037;-67
2021/01/23 04:58:52;;;;;;;168.45;42.28;;;0.50;96.70;;;;;;5029778;28;20509;-67
2021/01/23 05:01:17;;;;;;;164.30;40.15;;;0.50;96.80;;;;;;5044438;28;20066;-67
2021/01/23 05:04:00;;;;;;;150.20;40.10;;;0.40;96.70;;;;;;5044580;28;20033;-67
2021/01/23 05:06:27;;;;;;;154.95;40.25;;;0.50;96.70;;;;;;5029143;28;20379;-66
2021/01/23 05:08:54;;;;;;;154.13;40.88;;;0.50;96.70;;;;;;5033586;28;20034;-67
2021/01/23 05:11:20;;;;;;;171.93;39.35;;;0.50;96.70;;;;;;5049505;28;20028;-68
2021/01/23 05:14:14;;;;;;;178.02;40.45;;;0.50;96.70;;;;;;5043864;28;20029;-67
2021/01/23 05:16:40;;;;;;;166.50;38.88;;;0.60;96.70;;;;;;5030010;28;20329;-67
2021/01/23 05:19:07;;;;;;;158.55;39.75;;;0.50;96.70;;;;;;5043346;28;20271;-67
2021/01/23 05:21:33;;;;;;;146.18;40.05;;;0.50;96.60;;;;;;5049431;28;20059;-66
2021/01/23 05:24:10;;;;;;;154.40;39.88;;;0.50;96.60;;;;;;5034995;28;20436;-67
2021/01/23 05:26:37;;;;;;;160.85;42.10;;;0.50;96.60;;;;;;5043148;28;20037;-67
2021/01/23 05:29:10;;;;;;;150.38;39.60;;;0.60;96.70;;;;;;5028657;28;20478;-65
2021/01/23 05:31:37;;;;;;;149.70;40.85;;;0.50;96.60;;;;;;5031072;28;20262;-66
2021/01/23 05:34:28;;;;;;;161.65;41.10;;;0.50;96.70;;;;;;5029906;28;20037;-67
2021/01/23 05:36:54;;;;;;;151.82;39.63;;;0.50;96.60;;;;;;5034996;28;20033;-66
2021/01/23 05:39:20;;;;;;;153.98;40.22;;;0.50;96.60;;;;;;5036299;28;20044;-67
2021/01/23 05:42:06;;;;;;;138.90;39.88;;;0.60;96.60;;;;;;5042285;28;20033;-67
2021/01/23 05:44:31;;;;;;;148.18;40.42;;;0.50;96.60;;;;;;5031287;28;20025;-67
2021/01/23 05:46:57;;;;;;;144.60;41.10;;;0.50;96.60;;;;;;5042949;28;20037;-67
2021/01/23 05:49:23;;;;;;;153.75;41.42;;;0.50;96.60;;;;;;5029728;28;20048;-67
2021/01/23 05:51:48;;;;;;;162.95;41.05;;;0.50;96.60;;;;;;5040165;28;20056;-67
2021/01/23 05:54:14;;;;;;;141.90;39.55;;;0.50;96.60;;;;;;5037410;28;20033;-67
2021/01/23 05:56:41;;;;;;;146.70;40.85;;;0.50;96.60;;;;;;5034504;28;20033;-66
2021/01/23 05:59:07;;;;;;;152.98;39.28;;;0.50;96.60;;;;;;5032039;28;20037;-67
2021/01/23 06:01:34;;;;;;;155.50;40.92;;;0.50;96.60;;;;;;5037334;28;20032;-66
2021/01/23 06:04:00;;;;;;;142.52;40.03;;;0.40;96.50;;;;;;5048433;28;20075;-67
2021/01/23 06:06:43;;;;;;;156.27;41.63;;;0.40;96.50;;;;;;5038072;28;20478;-67
2021/01/23 06:09:08;;;;;;;151.25;39.67;;;0.40;96.60;;;;;;5033688;28;20456;-67
2021/01/23 06:11:34;;;;;;;151.07;41.15;;;0.40;96.50;;;;;;5031349;28;20021;-66
2021/01/23 06:14:00;;;;;;;145.70;40.75;;;0.40;96.50;;;;;;5036134;28;20087;-67
2021/01/23 06:16:31;;;;;;;140.45;38.85;;;0.40;96.50;;;;;;5049511;28;20047;-67
2021/01/23 06:18:58;;;;;;;138.95;38.67;;;0.40;96.60;;;;;;5041698;28;20029;-67
2021/01/23 06:21:46;;;;;;;155.85;40.78;;;0.40;96.60;;;;;;5031239;28;20666;-67
2021/01/23 06:24:16;;;;;;;162.88;40.55;;;0.40;96.60;;;;;;5037961;28;20033;-67
2021/01/23 06:26:54;;;;;;;172.63;42.57;;;0.50;96.60;;;;;;5050315;28;20456;-67
2021/01/23 06:29:34;;;;;;;168.75;42.13;;;0.60;96.70;;;;;;5039165;28;20061;-67
2021/01/23 06:32:12;;;;;;;152.32;43.05;;;0.60;96.60;;;;;;5034665;28;20402;-67
2021/01/23 06:34:56;;;;;;;153.13;40.85;;;0.60;96.50;;;;;;5030666;28;20505;-66
2021/01/23 06:37:33;;;;;;;150.20;42.67;;;0.60;96.40;;;;;;5025173;28;20079;-66
2021/01/23 06:39:59;;;;;;;132.32;39.92;;;0.60;96.40;;;;;;5025797;28;20548;-66
2021/01/23 06:42:24;;;;;;;142.98;40.20;;;0.60;96.30;;;;;;5025545;28;20033;-66
2021/01/23 06:44:50;;;;;;;143.93;41.95;;;0.60;96.30;;;;;;5025974;28;20025;-67
2021/01/23 06:47:16;;;;;;;113.65;38.95;;;0.60;96.30;;;;;;5026545;28;20888;-66
2021/01/23 06:49:42;;;;;;;126.47;39.70;;;0.60;96.20;;;;;;5024134;28;20079;-67
2021/01/23 06:52:07;;;;;;;120.03;39.92;;;0.50;96.10;;;;;;5027197;28;20509;-67
2021/01/23 06:57:06;;;;;;;126.65;39.03;;;0.50;96.20;;;;;;5087267;22;20049;-65
2021/01/23 06:59:34;;;;;;;119.63;39.85;;;0.50;96.20;;;;;;5067035;28;20048;-65
2021/01/23 07:02:14;;;;;;;129.02;39.97;;;0.50;96.30;;;;;;5066472;28;20024;-65
2021/01/23 07:04:49;;;;;;;115.13;37.58;;;0.40;96.30;;;;;;5066211;28;20559;-66
2021/01/23 07:07:17;;;;;;;115.35;37.22;;;0.40;96.20;;;;;;5051097;28;20039;-66
2021/01/23 07:09:48;;;;;;;110.68;37.72;;;0.30;96.20;;;;;;5039983;28;20544;-65
2021/01/23 07:12:52;;;;;;;110.07;37.03;;;0.30;96.30;;;;;;5032525;28;20039;-66
2021/01/23 07:15:23;;;;;;;112.88;37.97;;;0.20;96.40;;;;;;4987272;28;20022;-66
2021/01/23 07:17:52;;;;;;;120.70;38.03;;;0.20;96.40;;;;;;4986741;28;20034;-66
2021/01/23 07:20:18;;;;;;;120.03;37.15;;;0.10;96.40;;;;;;5015686;28;20444;-66
2021/01/23 07:22:45;;;;;;;136.40;38.08;;;0.10;96.50;;;;;;5038713;28;20086;-65
2021/01/23 07:25:14;;;;;;;131.95;39.83;;;0.20;96.60;;;;;;5046862;28;20087;-65
2021/01/23 07:27:40;;;;;;;144.82;41.25;;;0.20;96.70;;;;;;5043775;28;20479;-66
2021/01/23 07:30:16;;;;;;;143.70;41.20;;;0.20;96.70;;;;;;5033598;28;20033;-66
2021/01/23 07:32:43;;;;;;;139.60;41.45;;;0.20;96.70;;;;;;5049275;28;20029;-65
2021/01/23 07:35:09;;;;;;;143.57;41.80;;;0.20;96.70;;;;;;5048753;28;20025;-65
2021/01/23 07:37:50;;;;;;;153.25;43.67;;;0.30;96.70;;;;;;5046464;28;20036;-65
2021/01/23 07:40:30;;;;;;;138.50;40.33;;;0.30;96.70;;;;;;5047681;28;20037;-67
2021/01/23 07:43:00;;;;;;;135.75;40.53;;;0.20;96.60;;;;;;5034208;28;20033;-66
2021/01/23 07:45:26;;;;;;;150.73;41.85;;;0.30;96.60;;;;;;5039868;28;20540;-66
2021/01/23 07:48:01;;;;;;;142.27;41.47;;;0.20;96.70;;;;;;5037400;28;20045;-66
2021/01/23 07:50:39;;;;;;;138.55;40.83;;;0.30;96.70;;;;;;5048864;28;20083;-66
2021/01/23 07:53:22;;;;;;;142.10;41.90;;;0.30;96.70;;;;;;5047767;28;20106;-66
2021/01/23 07:55:48;;;;;;;146.15;42.03;;;0.30;96.70;;;;;;5041709;28;20055;-66
2021/01/23 07:58:14;;;;;;;141.48;42.35;;;0.40;96.70;;;;;;5035374;28;20052;-65
2021/01/23 08:00:40;;;;;;;132.90;41.28;;;0.40;96.60;;;;;;5044227;28;20025;-66
2021/01/23 08:03:06;;;;;;;145.38;45.50;;;0.40;96.60;;;;;;5035606;28;20645;-66
2021/01/23 08:05:54;;;;;;;144.98;44.50;;;0.30;96.50;;;;;;5042642;28;20033;-66
2021/01/23 08:08:33;;;;;;;125.72;43.97;;;0.40;96.50;;;;;;5037607;28;20029;-66
2021/01/23 08:11:03;;;;;;;118.03;40.67;;;0.40;96.50;;;;;;5034212;28;20432;-66
2021/01/23 08:13:30;;;;;;;129.73;43.47;;;0.40;96.40;;;;;;5034411;28;20032;-66
2021/01/23 08:16:28;;;;;;;126.03;40.25;;;0.50;96.50;;;;;;5032982;28;20501;-66
2021/01/23 08:19:05;;;;;;;113.20;38.85;;;0.50;96.40;;;;;;5001212;28;20195;-66
2021/01/23 08:21:31;;;;;;;121.35;40.33;;;0.60;96.30;;;;;;5036165;28;20086;-66
2021/01/23 08:23:57;;;;;;;100.03;39.03;;;0.60;96.20;;;;;;5037536;28;20021;-66
2021/01/23 08:26:36;;;;;;;100.47;38.00;;;0.70;96.20;;;;;;5036161;28;20041;-66
2021/01/23 08:29:02;;;;;;;98.95;37.17;;;0.70;96.00;;;;;;5035282;28;20268;-66
2021/01/23 08:31:28;;;;;;;87.47;36.65;;;0.70;95.90;;;;;;5041216;28;20052;-66
2021/01/23 08:33:55;;;;;;;82.57;34.72;;;0.70;95.80;;;;;;5038161;28;20024;-66
2021/01/23 08:36:27;;;;;;;77.75;34.42;;;0.80;95.80;;;;;;5044985;28;20100;-66
2021/01/23 08:39:04;;;;;;;78.03;34.88;;;0.80;95.60;;;;;;5042601;28;20029;-66
2021/01/23 08:41:30;;;;;;;72.13;32.60;;;0.90;95.50;;;;;;5043242;28;20017;-66
2021/01/23 08:43:56;;;;;;;75.25;34.35;;;0.90;95.40;;;;;;5045830;28;20028;-66
2021/01/23 08:46:22;;;;;;;75.20;33.10;;;1.00;95.30;;;;;;5036805;28;20500;-66
2021/01/23 08:48:49;;;;;;;75.25;34.75;;;1.00;95.20;;;;;;5039607;28;20028;-66
2021/01/23 08:51:15;;;;;;;66.05;32.38;;;1.00;95.10;;;;;;5039965;28;20040;-66
2021/01/23 08:53:41;;;;;;;66.63;32.63;;;1.10;95.00;;;;;;5034759;28;20024;-66
2021/01/23 08:56:08;;;;;;;67.85;31.45;;;1.10;94.90;;;;;;5034202;28;20148;-66
2021/01/23 08:58:34;;;;;;;60.95;31.08;;;1.20;94.90;;;;;;5043973;28;20017;-66
2021/01/23 09:00:59;;;;;;;62.35;29.20;;;1.20;94.70;;;;;;5037871;28;20423;-66
2021/01/23 09:03:25;;;;;;;63.63;30.05;;;1.30;94.50;;;;;;5044528;28;20685;-66
2021/01/23 09:05:51;;;;;;;49.28;28.42;;;1.30;94.40;;;;;;5042323;28;20414;-66
2021/01/23 09:08:16;;;;;;;54.20;30.40;;;1.40;94.30;;;;;;5037867;28;20061;-66
2021/01/23 09:10:42;;;;;;;52.92;27.90;;;1.40;94.20;;;;;;5041883;28;20489;-65
2021/01/23 09:13:08;;;;;;;57.67;28.55;;;1.50;94.10;;;;;;5027387;28;20048;-66
2021/01/23 09:15:33;;;;;;;52.13;27.90;;;1.50;94.00;;;;;;5037779;28;20040;-66
2021/01/23 09:17:59;;;;;;;46.50;26.52;;;1.60;93.80;;;;;;5029216;28;20039;-66
2021/01/23 09:20:25;;;;;;;57.80;27.10;;;1.60;93.40;;;;;;5040780;28;20547;-66
2021/01/23 09:22:50;;;;;;;44.35;24.98;;;1.70;93.30;;;;;;5046325;28;20033;-66
2021/01/23 09:25:18;;;;;;;45.30;25.77;;;1.80;93.10;;;;;;5045588;28;20079;-66
2021/01/23 09:27:44;;;;;;;49.67;24.35;;;1.80;92.90;;;;;;5046666;28;20027;-66
2021/01/23 09:30:10;;;;;;;45.67;24.65;;;1.90;92.50;;;;;;5039698;28;20029;-66
2021/01/23 09:32:35;;;;;;;41.15;25.02;;;1.90;92.50;;;;;;5044987;28;20382;-66
2021/01/23 09:35:01;;;;;;;41.88;24.80;;;1.90;92.30;;;;;;5042668;28;20016;-66
2021/01/23 09:37:27;;;;;;;50.05;25.23;;;2.00;92.20;;;;;;5048458;28;20517;-67
2021/01/23 09:39:52;;;;;;;38.25;23.17;;;2.00;92.00;;;;;;5041777;28;20123;-67
2021/01/23 09:42:19;;;;;;;39.15;22.70;;;2.00;92.30;;;;;;5051278;28;20106;-67
2021/01/23 09:44:45;;;;;;;50.83;24.05;;;2.00;92.00;;;;;;5041016;28;20029;-67
2021/01/23 09:47:13;;;;;;;43.30;22.77;;;2.00;92.20;;;;;;5039349;28;20452;-67
2021/01/23 09:49:39;;;;;;;45.70;23.25;;;2.00;91.80;;;;;;5046329;28;20220;-66
2021/01/23 09:52:05;;;;;;;42.60;23.10;;;2.10;92.10;;;;;;5047031;28;20272;-66
2021/01/23 09:54:30;;;;;;;42.45;24.88;;;2.10;91.70;;;;;;5042835;28;20056;-66
2021/01/23 09:56:56;;;;;;;42.22;23.10;;;2.20;91.40;;;;;;5041986;28;20045;-66
2021/01/23 09:59:21;;;;;;;46.00;23.48;;;2.20;91.30;;;;;;5044073;28;20075;-66
2021/01/23 10:01:47;;;;;;;42.00;22.67;;;2.40;91.50;;;;;;5039522;28;20082;-66
2021/01/23 10:04:13;;;;;;;40.50;22.83;;;2.40;90.80;;;;;;5038577;28;20056;-66
2021/01/23 10:06:38;;;;;;;37.80;21.40;;;2.50;91.00;;;;;;5046874;28;20044;-66
2021/01/23 10:09:04;;;;;;;37.20;22.08;;;2.60;90.30;;;;;;5046947;28;20137;-66
2021/01/23 10:11:29;;;;;;;39.45;22.15;;;2.60;90.10;;;;;;5050223;28;20025;-66
2021/01/23 10:13:55;;;;;;;36.65;20.70;;;2.60;91.00;;;;;;5049461;28;20017;-66
2021/01/23 10:16:21;;;;;;;38.22;20.90;;;2.70;89.80;;;;;;5039647;28;20299;-66
2021/01/23 10:18:46;;;;;;;37.13;19.65;;;2.70;89.70;;;;;;5043920;28;20037;-66
2021/01/23 10:21:12;;;;;;;33.00;19.77;;;2.80;89.70;;;;;;5041820;28;20439;-66
2021/01/23 10:23:37;;;;;;;35.88;17.95;;;2.90;89.70;;;;;;5046183;28;20045;-66
2021/01/23 10:26:03;;;;;;;30.80;16.80;;;3.00;89.30;;;;;;5041432;28;20044;-66
2021/01/23 10:28:29;;;;;;;30.83;16.27;;;3.10;88.50;;;;;;5047759;28;20029;-66
2021/01/23 10:30:55;;;;;;;28.73;16.75;;;3.20;88.20;;;;;;5039728;28;20098;-66
2021/01/23 10:33:20;;;;;;;28.42;16.00;;;3.20;88.70;;;;;;5045064;28;20526;-66
2021/01/23 10:35:46;;;;;;;31.05;15.88;;;3.40;88.20;;;;;;5041913;28;20033;-66
2021/01/23 10:38:12;;;;;;;27.83;16.73;;;3.50;87.50;;;;;;5040119;28;20087;-65
2021/01/23 10:40:38;;;;;;;25.90;15.20;;;3.50;87.30;;;;;;5047520;28;20084;-66
2021/01/23 10:43:03;;;;;;;29.70;15.90;;;3.50;86.90;;;;;;5047418;28;20032;-66
2021/01/23 10:45:29;;;;;;;26.20;14.75;;;3.50;86.60;;;;;;5041249;28;20448;-66
2021/01/23 10:47:55;;;;;;;25.25;14.20;;;3.60;87.30;;;;;;5049826;28;20041;-66
2021/01/23 10:50:20;;;;;;;25.63;14.35;;;3.60;86.10;;;;;;5036831;28;20079;-66
2021/01/23 10:52:47;;;;;;;24.75;12.70;;;3.90;85.50;;;;;;5041258;28;20069;-66
2021/01/23 10:55:13;;;;;;;21.95;13.65;;;4.00;84.30;;;;;;5041328;28;20394;-66
2021/01/23 10:57:39;;;;;;;25.63;12.63;;;4.10;84.50;;;;;;5039882;28;20029;-66
2021/01/23 11:00:07;;;;;;;19.10;12.15;;;4.00;82.90;;;;;;5028945;28;20427;-66
2021/01/23 11:02:36;;;;;;;19.27;11.00;;;4.10;83.90;;;;;;5045441;28;20026;-66
2021/01/23 11:05:03;;;;;;;19.73;11.93;;;4.10;83.90;;;;;;5042600;28;20032;-66
2021/01/23 11:07:28;;;;;;;22.15;12.15;;;4.00;84.30;;;;;;5043000;28;20029;-66
2021/01/23 11:09:54;;;;;;;19.50;12.20;;;3.90;84.70;;;;;;5042372;28;20035;-66
2021/01/23 11:12:19;;;;;;;20.83;11.88;;;3.90;84.20;;;;;;5048468;28;20072;-66
2021/01/23 11:14:45;;;;;;;21.35;11.85;;;3.90;84.40;;;;;;5039920;28;20018;-66
2021/01/23 11:17:10;;;;;;;20.60;12.95;;;4.00;84.20;;;;;;5034700;28;20101;-66
2021/01/23 11:19:36;;;;;;;22.58;11.52;;;4.00;84.60;;;;;;5041101;28;20040;-66
2021/01/23 11:22:01;;;;;;;21.13;11.25;;;4.10;84.30;;;;;;5036768;28;20112;-66
2021/01/23 11:24:29;;;;;;;26.70;11.35;;;4.10;84.10;;;;;;5039611;28;20086;-66
2021/01/23 11:26:55;;;;;;;18.00;9.88;;;4.10;83.70;;;;;;5042933;28;20052;-66
2021/01/23 11:29:20;;;;;;;18.38;10.13;;;4.10;83.90;;;;;;5046534;28;20448;-66
2021/01/23 11:31:46;;;;;;;19.10;10.57;;;4.20;83.90;;;;;;5041343;28;20021;-66
2021/01/23 11:34:11;;;;;;;17.40;9.38;;;4.20;83.90;;;;;;5042083;28;20546;-66
2021/01/23 11:36:37;;;;;;;21.65;9.70;;;4.20;83.40;;;;;;5042130;28;20021;-66
2021/01/23 11:39:03;;;;;;;16.02;9.82;;;4.20;83.20;;;;;;5037828;28;20616;-66
2021/01/23 11:41:28;;;;;;;18.65;9.63;;;4.20;83.00;;;;;;5038651;28;20033;-66
2021/01/23 11:43:54;;;;;;;19.58;10.25;;;4.20;83.30;;;;;;5049418;28;20107;-66
2021/01/23 11:46:20;;;;;;;18.38;10.35;;;4.30;83.00;;;;;;5040711;28;20026;-66
2021/01/23 11:48:45;;;;;;;18.77;10.40;;;4.30;82.90;;;;;;5041569;28;20040;-66
2021/01/23 11:51:11;;;;;;;17.77;10.20;;;4.30;82.80;;;;;;5037269;28;20117;-66
2021/01/23 11:53:37;;;;;;;19.25;9.88;;;4.20;83.40;;;;;;5032848;28;20437;-66
2021/01/23 11:56:02;;;;;;;21.63;9.90;;;4.20;83.80;;;;;;5045504;28;20029;-66
2021/01/23 11:58:28;;;;;;;20.20;9.70;;;4.20;84.00;;;;;;5041653;28;20037;-66
2021/01/23 12:00:53;;;;;;;17.50;10.30;;;4.30;84.40;;;;;;5044795;28;20060;-66
2021/01/23 12:03:19;;;;;;;16.63;10.30;;;4.30;84.30;;;;;;5044168;28;20078;-66
2021/01/23 12:05:44;;;;;;;15.45;10.07;;;4.30;84.20;;;;;;5036982;28;20057;-66
2021/01/23 12:08:10;;;;;;;20.50;10.25;;;4.30;83.60;;;;;;5041062;28;20107;-66
2021/01/23 12:10:36;;;;;;;22.08;10.55;;;4.30;84.10;;;;;;5030288;28;20044;-66
2021/01/23 12:13:01;;;;;;;20.30;11.10;;;4.30;84.80;;;;;;5044383;28;20225;-67
2021/01/23 12:15:27;;;;;;;15.82;9.00;;;4.30;84.30;;;;;;5022541;28;20022;-67
2021/01/23 12:17:53;;;;;;;18.60;10.35;;;4.30;84.50;;;;;;5024601;28;20025;-66
2021/01/23 12:20:22;;;;;;;17.27;9.73;;;4.30;84.40;;;;;;5046985;28;20029;-67
2021/01/23 12:22:52;;;;;;;16.60;9.50;;;4.40;84.70;;;;;;5037786;28;20033;-67
2021/01/23 12:25:18;;;;;;;16.50;9.00;;;4.60;84.90;;;;;;5032951;28;20020;-67
2021/01/23 12:27:44;;;;;;;14.13;8.30;;;4.70;84.90;;;;;;5041235;28;20499;-67
2021/01/23 12:30:12;;;;;;;17.67;8.15;;;4.70;83.60;;;;;;5045002;28;20033;-66
2021/01/23 12:32:39;;;;;;;16.98;9.15;;;4.70;83.90;;;;;;5044085;28;20093;-67
2021/01/23 12:35:07;;;;;;;15.45;9.18;;;4.80;84.20;;;;;;5043302;28;20036;-67
2021/01/23 12:37:33;;;;;;;12.95;8.57;;;5.00;83.40;;;;;;5041571;28;20100;-67
2021/01/23 12:39:58;;;;;;;18.23;8.65;;;5.10;82.80;;;;;;5034742;28;20108;-67